Prince Rupert Airport
CYPR : now visible

Airfield :











YOU CAN JOIN US ON...

 
LOGIN :

Register | Disclaimer

   EN    FR    IT 

 









Legend :    VFR   Marginal VFR   IFR   Intensive IFR   Very Intensive IFR
Visi :
Ceiling :
>= 8 km
>= 3000ft
5 to 8 km
1000 to 3000 ft
1500m to 5 km
500 to 1000 ft
800 to 1500m
200 to 500 ft
< 800m
< 200 ft
Symbols :   Thunderstorms  Fog  Heavy snow  Heavy precipitations  Wind > 20 kt






- Airport Elevation : 116 ft
- IATA code : YPR


CYPR - Prince Rupert

CURRENT METAR :
  • 240157Z AUTO 08008KT 6SM -RA BR FEW037 BKN050 BKN065 OVC076 11/10 A2927 RMK SLP913 DENSITY ALT 400FT

EXPIRED METARs :
  • 240133Z AUTO 09005KT 4SM RA BR FEW038 OVC065 11/11 A2928 RMK SLP917 DENSITY ALT 400FT
  • 240100Z AUTO 08005KT 9SM -RA FEW041 BKN049 OVC065 12/11 A2928 RMK SLP917 DENSITY ALT 400FT
  • 240031Z AUTO 09008KT 9SM -RA FEW032 SCT041 BKN048 BKN055 12/10 A2929 RMK SLP919 DENSITY ALT 500FT
  • 240000Z AUTO 07005KT 8SM -RA FEW038 SCT046 SCT055 OVC068 11/10 A2929 RMK PCPN 2.5MM PAST HR SLP922 DENSITY ALT 400FT
  • 232352Z AUTO 07007KT 6SM -RA BR BKN042 BKN055 OVC066 11/10 A2930 RMK SLP923 DENSITY ALT 400FT
  • 232340Z AUTO 09005KT 5SM RA BR BKN042 BKN055 OVC067 11/10 A2930 RMK SLP925 DENSITY ALT 400FT
  • 232332Z AUTO 10006KT 6SM -RA BR BKN047 OVC060 12/10 A2930 RMK SLP924 DENSITY ALT 400FT
  • 232300Z AUTO 11008KT 3SM RA BR BKN065 OVC077 12/10 A2931 RMK SLP927 DENSITY ALT 400FT

TAF TAF CYPR
Valid from the 24 at 01:00 until the 24 at 13:00 UTC


240038Z 2401/2413 10008KT P6SM -SHRA SCT020 BKN040 OVC060
TEMPO 2401/2405 3SM SHRA BR BKN020 OVC040
FM240500 10008KT P6SM -SHRA SCT008 OVC025
TEMPO 2405/2413 2SM SHRA BR BKN008 OVC012 RMK FCST BASED ON AUTO OBS. NXT FCST BY 240700Z
CZVR FIR / North America



MET'MAP, your aeronautical weather chart ! - Copyright ORBIFLY December 2007 - Disclaimer

ORBIFLY MET'MAP TEAM :

Programming & Development : Alexandra Zaïnal
Concept & original design : Baudouin d'Aumeries
Assistance for programming : Marc-Olivier Méhu
Technical & hardware support : Manuel Goepfert

Contact : metmap@orbifly.com




SOURCES & CREDITS :

   NOAA       Earth
Advisory